Time;durP1;ratioP1;P1;durP2;ratioP2;P2;SDS_P1;SDS_P2;PMS_P1;PMS_P2;Temp;Humidity;BMP_temperature;BMP_pressure;BME280_temperature;BME280_humidity;BME280_pressure;Samples;Min_cycle;Max_cycle;Signal;HPM_P1;HPM_P2
2021/11/10 00:01:49;;;;;;;150.38;137.10;;;4.40;99.90;;;;;;5074742;28;20184;-84
2021/11/10 00:04:16;;;;;;;105.35;90.70;;;4.40;99.90;;;;;;5073093;28;20163;-84
2021/11/10 00:06:41;;;;;;;112.35;100.47;;;4.30;99.90;;;;;;5074512;28;20186;-84
2021/11/10 00:09:07;;;;;;;111.53;99.50;;;4.30;99.90;;;;;;5075176;28;20184;-84
2021/11/10 00:11:34;;;;;;;128.52;115.68;;;4.20;99.90;;;;;;5075082;28;20445;-84
2021/11/10 00:13:59;;;;;;;108.70;96.95;;;4.20;99.90;;;;;;5073528;28;20251;-84
2021/11/10 00:16:25;;;;;;;105.80;86.40;;;4.10;99.90;;;;;;5073087;28;20635;-84
2021/11/10 00:18:51;;;;;;;108.97;75.40;;;4.10;99.90;;;;;;5074475;28;20492;-84
2021/11/10 00:21:23;;;;;;;100.35;76.95;;;4.10;99.90;;;;;;5074423;28;20905;-84
2021/11/10 00:23:48;;;;;;;101.95;77.00;;;4.10;99.90;;;;;;5073346;28;20749;-83
2021/11/10 00:26:17;;;;;;;97.73;67.33;;;4.00;99.90;;;;;;5074856;28;20164;-84
2021/11/10 00:28:42;;;;;;;108.18;88.18;;;4.00;99.90;;;;;;5073449;28;20449;-84
2021/11/10 00:31:08;;;;;;;94.77;68.80;;;3.90;99.90;;;;;;5074641;28;20188;-84
2021/11/10 00:33:34;;;;;;;95.90;62.13;;;3.90;99.90;;;;;;5073183;28;20255;-84
2021/11/10 00:36:00;;;;;;;95.03;65.67;;;4.00;99.90;;;;;;5073162;28;20167;-84
2021/11/10 00:38:26;;;;;;;98.87;64.97;;;4.00;99.90;;;;;;5072934;28;20847;-84
2021/11/10 00:40:51;;;;;;;99.07;69.67;;;4.00;99.90;;;;;;5074321;28;20398;-84
2021/11/10 00:43:17;;;;;;;95.67;67.63;;;4.00;99.90;;;;;;5074314;28;20171;-84
2021/11/10 00:45:43;;;;;;;95.33;69.73;;;4.00;99.90;;;;;;5137535;22;20472;-86
2021/11/10 00:48:11;;;;;;;97.20;63.20;;;4.10;99.90;;;;;;5075506;28;20195;-86
2021/11/10 00:50:38;;;;;;;94.95;58.80;;;4.10;99.90;;;;;;5057752;28;20670;-86
2021/11/10 00:53:05;;;;;;;92.22;58.00;;;4.20;99.90;;;;;;5075394;28;20246;-86
2021/11/10 00:55:35;;;;;;;92.63;58.28;;;4.20;99.90;;;;;;5075750;28;20159;-86
2021/11/10 00:58:02;;;;;;;95.75;70.45;;;4.20;99.90;;;;;;5057217;28;20179;-85
2021/11/10 01:00:28;;;;;;;97.50;70.55;;;4.20;99.90;;;;;;5075268;28;20209;-86
2021/11/10 01:02:54;;;;;;;99.27;71.07;;;4.10;99.90;;;;;;5074940;28;20168;-86
2021/11/10 01:05:20;;;;;;;105.17;76.20;;;4.10;99.90;;;;;;5056719;28;20932;-85
2021/11/10 01:07:46;;;;;;;99.82;70.63;;;4.20;99.90;;;;;;5057060;28;20432;-85
2021/11/10 01:10:12;;;;;;;97.97;77.30;;;4.10;99.90;;;;;;5056243;28;20195;-86
2021/11/10 01:12:38;;;;;;;99.97;76.78;;;4.10;99.90;;;;;;5074637;28;20445;-85
2021/11/10 01:15:07;;;;;;;97.93;72.93;;;4.00;99.90;;;;;;5076172;28;20164;-85
2021/11/10 01:17:33;;;;;;;102.90;86.38;;;4.10;99.90;;;;;;5078416;28;20160;-86
2021/11/10 01:19:58;;;;;;;105.57;92.93;;;4.00;99.90;;;;;;5078491;28;20190;-85
2021/11/10 01:22:24;;;;;;;141.90;128.40;;;4.00;99.90;;;;;;5078367;28;20164;-86
2021/11/10 01:24:50;;;;;;;150.63;136.77;;;4.00;99.90;;;;;;5078274;28;20164;-85
2021/11/10 01:27:16;;;;;;;154.45;141.23;;;4.10;99.90;;;;;;5060059;28;20163;-85
2021/11/10 01:29:42;;;;;;;194.87;179.50;;;4.10;99.90;;;;;;5059861;28;20192;-86
2021/11/10 01:32:09;;;;;;;186.27;171.50;;;4.10;99.90;;;;;;5078246;28;20448;-85
2021/11/10 01:34:35;;;;;;;195.98;181.02;;;4.20;99.90;;;;;;5078426;28;20178;-86
2021/11/10 01:37:01;;;;;;;198.63;183.15;;;4.20;99.90;;;;;;5059728;28;20164;-85
2021/11/10 01:39:26;;;;;;;167.67;153.47;;;4.20;99.90;;;;;;5077985;28;20180;-85
2021/11/10 01:41:55;;;;;;;196.13;181.17;;;4.20;99.90;;;;;;5060187;28;20413;-85
2021/11/10 01:44:24;;;;;;;162.35;148.68;;;4.10;99.90;;;;;;5060441;28;20237;-86
2021/11/10 01:46:55;;;;;;;180.45;165.82;;;4.10;99.90;;;;;;5077654;28;20176;-85
2021/11/10 01:49:21;;;;;;;187.38;172.35;;;4.00;99.90;;;;;;5059782;28;20565;-85
2021/11/10 01:51:50;;;;;;;216.03;200.20;;;4.00;99.90;;;;;;5077672;28;20191;-86
2021/11/10 01:54:18;;;;;;;174.38;160.60;;;4.10;99.90;;;;;;5077244;28;20512;-86
2021/11/10 01:56:44;;;;;;;182.50;168.00;;;4.10;99.90;;;;;;5077692;28;20160;-85
2021/11/10 01:59:11;;;;;;;183.07;169.05;;;4.00;99.90;;;;;;5077737;28;20232;-85
2021/11/10 02:01:44;;;;;;;219.75;204.38;;;4.00;99.90;;;;;;5077319;28;20164;-85
2021/11/10 02:04:10;;;;;;;173.30;159.70;;;4.00;99.90;;;;;;5077816;28;20152;-86
2021/11/10 02:06:37;;;;;;;177.27;163.00;;;4.00;99.90;;;;;;5059921;28;20167;-86
2021/11/10 02:09:04;;;;;;;186.88;172.15;;;4.00;99.90;;;;;;5077509;28;20258;-86
2021/11/10 02:11:31;;;;;;;167.77;152.65;;;4.00;99.90;;;;;;5059085;28;20292;-85
2021/11/10 02:13:57;;;;;;;178.05;163.82;;;4.00;99.90;;;;;;5077370;28;20167;-86
2021/11/10 02:16:23;;;;;;;167.50;153.80;;;4.00;99.90;;;;;;5058892;28;20160;-85
2021/11/10 02:18:49;;;;;;;181.03;166.97;;;4.00;99.90;;;;;;5058652;28;20271;-85
2021/11/10 02:21:16;;;;;;;229.35;213.20;;;4.00;99.90;;;;;;5077107;28;20398;-85
2021/11/10 02:23:41;;;;;;;212.80;197.30;;;3.90;99.90;;;;;;5059671;28;20168;-85
2021/11/10 02:26:12;;;;;;;211.30;195.27;;;3.90;99.90;;;;;;5059236;28;20657;-86
2021/11/10 02:28:38;;;;;;;186.65;172.10;;;3.90;99.90;;;;;;5076554;28;20237;-85
2021/11/10 02:31:04;;;;;;;209.65;194.43;;;4.00;99.90;;;;;;5076957;28;20187;-86
2021/11/10 02:33:30;;;;;;;201.77;187.00;;;3.90;99.90;;;;;;5060311;28;20226;-85
2021/11/10 02:36:01;;;;;;;256.33;239.43;;;3.90;99.90;;;;;;5061555;28;20426;-84
2021/11/10 02:38:27;;;;;;;206.48;191.23;;;3.80;99.90;;;;;;5078555;28;20418;-86
2021/11/10 02:40:55;;;;;;;185.77;171.57;;;3.80;99.90;;;;;;5058986;28;20166;-85
2021/11/10 02:43:21;;;;;;;200.20;185.55;;;3.90;99.90;;;;;;5058836;28;20175;-85
2021/11/10 02:45:48;;;;;;;188.80;174.73;;;3.80;99.90;;;;;;5058861;28;20635;-85
2021/11/10 02:48:14;;;;;;;213.68;198.35;;;3.80;99.90;;;;;;5076402;28;20179;-86
2021/11/10 02:50:40;;;;;;;211.93;197.05;;;3.70;99.90;;;;;;5076780;28;20168;-86
2021/11/10 02:53:06;;;;;;;202.80;188.23;;;3.70;99.90;;;;;;5076029;28;20191;-85
2021/11/10 02:55:31;;;;;;;169.93;156.57;;;3.80;99.90;;;;;;5076481;28;20164;-85
2021/11/10 02:57:58;;;;;;;225.47;209.60;;;3.70;99.90;;;;;;5076218;28;20161;-85
2021/11/10 03:00:24;;;;;;;199.98;184.95;;;3.80;99.90;;;;;;5058063;28;20532;-85
2021/11/10 03:02:51;;;;;;;184.73;170.30;;;3.80;99.90;;;;;;5076151;28;20225;-86
2021/11/10 03:05:17;;;;;;;212.88;197.63;;;3.80;99.90;;;;;;5058278;28;20532;-86
2021/11/10 03:07:43;;;;;;;180.43;166.47;;;3.80;99.90;;;;;;5058699;28;20171;-85
2021/11/10 03:10:12;;;;;;;178.37;164.53;;;3.80;99.90;;;;;;5058754;28;20438;-86
2021/11/10 03:12:38;;;;;;;208.65;193.98;;;3.70;99.90;;;;;;5075753;28;20206;-85
2021/11/10 03:15:04;;;;;;;197.18;182.63;;;3.70;99.90;;;;;;5058524;28;20527;-86
2021/11/10 03:17:30;;;;;;;170.85;157.18;;;3.60;99.90;;;;;;5076767;28;20166;-85
2021/11/10 03:19:56;;;;;;;179.32;164.93;;;3.70;99.90;;;;;;5076261;28;20207;-86
2021/11/10 03:22:22;;;;;;;204.03;188.67;;;3.70;99.90;;;;;;5076207;28;20175;-86
2021/11/10 03:24:49;;;;;;;167.70;154.45;;;3.60;99.90;;;;;;5042213;28;20642;-86
2021/11/10 03:27:16;;;;;;;175.57;162.00;;;3.60;99.90;;;;;;5076170;28;20218;-86
2021/11/10 03:29:41;;;;;;;161.93;148.23;;;3.60;99.90;;;;;;5057629;28;20188;-86
2021/11/10 03:32:09;;;;;;;183.30;169.07;;;3.60;99.90;;;;;;5075839;28;20180;-86
2021/11/10 03:34:35;;;;;;;149.15;136.32;;;3.60;99.90;;;;;;5058155;28;20650;-86
2021/11/10 03:37:01;;;;;;;169.27;155.33;;;3.60;99.90;;;;;;5076283;28;20179;-86
2021/11/10 03:39:27;;;;;;;152.35;139.30;;;3.60;99.90;;;;;;5057107;28;20889;-86
2021/11/10 03:41:53;;;;;;;161.33;147.97;;;3.60;99.90;;;;;;5075606;28;20159;-85
2021/11/10 03:44:19;;;;;;;146.02;133.35;;;3.60;99.90;;;;;;5075776;28;20191;-85
2021/11/10 03:46:45;;;;;;;159.63;145.40;;;3.60;99.90;;;;;;5057684;28;20199;-86
2021/11/10 03:49:12;;;;;;;183.27;168.80;;;3.60;99.90;;;;;;5075332;28;20673;-86
2021/11/10 03:51:38;;;;;;;158.30;145.20;;;3.60;99.90;;;;;;5075727;28;20540;-86
2021/11/10 03:54:04;;;;;;;127.35;115.20;;;3.60;99.90;;;;;;5058044;28;20160;-86
2021/11/10 03:56:30;;;;;;;175.33;161.43;;;3.60;99.90;;;;;;5075353;28;20171;-85
2021/11/10 03:58:56;;;;;;;156.57;143.47;;;3.60;99.90;;;;;;5058171;28;20523;-85
2021/11/10 04:01:21;;;;;;;170.77;156.67;;;3.60;99.90;;;;;;5057690;28;20406;-85
2021/11/10 04:03:47;;;;;;;146.60;133.07;;;3.60;99.90;;;;;;5075349;28;20191;-85
2021/11/10 04:06:13;;;;;;;133.87;121.53;;;3.60;99.90;;;;;;5075948;28;20191;-85
2021/11/10 04:08:39;;;;;;;138.73;126.50;;;3.50;99.90;;;;;;5057249;28;20461;-85
2021/11/10 04:11:05;;;;;;;142.07;129.40;;;3.40;99.90;;;;;;5075164;28;20200;-85
2021/11/10 04:13:32;;;;;;;106.67;94.70;;;3.40;99.90;;;;;;5057349;28;20581;-86
2021/11/10 04:15:58;;;;;;;110.72;96.05;;;3.40;99.90;;;;;;5057113;28;20160;-86
2021/11/10 04:18:24;;;;;;;109.63;98.25;;;3.30;99.90;;;;;;5075229;28;20180;-85
2021/11/10 04:20:50;;;;;;;117.60;105.60;;;3.20;99.90;;;;;;5056864;28;20689;-86
2021/11/10 04:23:15;;;;;;;120.27;107.57;;;3.10;99.90;;;;;;5056741;28;20410;-85
2021/11/10 04:25:41;;;;;;;119.10;107.07;;;3.10;99.90;;;;;;5056435;28;20164;-85
2021/11/10 04:28:07;;;;;;;116.57;103.97;;;3.10;99.90;;;;;;5074652;28;20160;-85
2021/11/10 04:30:33;;;;;;;118.13;106.33;;;3.00;99.90;;;;;;5075600;28;20171;-86
2021/11/10 04:33:00;;;;;;;127.53;115.50;;;3.00;99.90;;;;;;5056694;28;20275;-85
2021/11/10 04:35:26;;;;;;;141.70;128.13;;;3.00;99.90;;;;;;5056907;28;20254;-85
2021/11/10 04:37:51;;;;;;;138.30;126.05;;;3.00;99.90;;;;;;5075089;28;20623;-85
2021/11/10 04:40:17;;;;;;;119.80;108.10;;;2.80;99.90;;;;;;5074961;28;20217;-85
2021/11/10 04:42:43;;;;;;;135.70;123.43;;;2.80;99.90;;;;;;5074677;28;20195;-85
2021/11/10 04:45:17;;;;;;;155.70;142.37;;;2.80;99.90;;;;;;5056317;28;20267;-85
2021/11/10 04:47:43;;;;;;;125.32;113.38;;;2.90;99.90;;;;;;5056783;28;20213;-85
2021/11/10 04:50:09;;;;;;;134.07;121.87;;;2.80;99.90;;;;;;5076446;28;20183;-86
2021/11/10 04:52:36;;;;;;;113.82;102.25;;;2.80;99.90;;;;;;5078773;28;20703;-85
2021/11/10 04:55:04;;;;;;;140.80;128.38;;;2.80;99.90;;;;;;5078521;28;20604;-85
2021/11/10 04:57:30;;;;;;;128.02;116.13;;;2.80;99.90;;;;;;5078704;28;20176;-85
2021/11/10 04:59:56;;;;;;;138.10;125.70;;;2.70;99.90;;;;;;5078335;28;20179;-85
2021/11/10 05:02:24;;;;;;;139.30;127.10;;;2.60;99.90;;;;;;5078837;28;20278;-86
2021/11/10 05:04:52;;;;;;;156.32;142.63;;;2.60;99.90;;;;;;5060697;28;20172;-85
2021/11/10 05:07:18;;;;;;;131.30;118.97;;;2.50;99.90;;;;;;5061768;28;20653;-85
2021/11/10 05:09:45;;;;;;;134.02;121.85;;;2.50;99.90;;;;;;5062358;28;20183;-85
2021/11/10 05:12:10;;;;;;;147.27;133.70;;;2.50;99.90;;;;;;5078073;28;20188;-85
2021/11/10 05:14:37;;;;;;;140.87;128.63;;;2.50;99.90;;;;;;5060567;28;20585;-85
2021/11/10 05:17:03;;;;;;;115.25;103.35;;;2.50;99.90;;;;;;5078778;28;20217;-85
2021/11/10 05:19:29;;;;;;;127.53;115.00;;;2.50;99.90;;;;;;5077911;28;20180;-85
2021/11/10 05:21:55;;;;;;;138.17;125.27;;;2.40;99.90;;;;;;5060117;28;20713;-85
2021/11/10 05:24:22;;;;;;;131.33;119.13;;;2.50;99.90;;;;;;5059873;28;20446;-85
2021/11/10 05:26:48;;;;;;;126.53;114.22;;;2.50;99.90;;;;;;5061035;28;20171;-85
2021/11/10 05:29:15;;;;;;;133.30;121.15;;;2.50;99.90;;;;;;5077504;28;20184;-85
2021/11/10 05:31:43;;;;;;;131.15;119.07;;;2.50;99.90;;;;;;5077810;28;20195;-85
2021/11/10 05:34:09;;;;;;;135.15;122.20;;;2.50;99.90;;;;;;5077758;28;20526;-85
2021/11/10 05:36:35;;;;;;;145.60;132.23;;;2.50;99.90;;;;;;5059930;28;20164;-85
2021/11/10 05:39:01;;;;;;;149.83;137.13;;;2.40;99.90;;;;;;5078075;28;20231;-85
2021/11/10 05:41:26;;;;;;;136.23;124.00;;;2.40;99.90;;;;;;5077978;28;20160;-85
2021/11/10 05:43:52;;;;;;;118.40;106.57;;;2.50;99.90;;;;;;5060118;28;20418;-85
2021/11/10 05:46:18;;;;;;;155.27;141.47;;;2.50;99.90;;;;;;5059771;28;20183;-85
2021/11/10 05:48:43;;;;;;;140.83;127.83;;;2.50;99.90;;;;;;5059938;28;20251;-85
2021/11/10 05:51:09;;;;;;;138.17;125.80;;;2.50;99.90;;;;;;5060095;28;20192;-85
2021/11/10 05:53:38;;;;;;;135.57;123.30;;;2.50;99.90;;;;;;5059558;28;20180;-85
2021/11/10 05:56:04;;;;;;;140.23;127.65;;;2.50;99.90;;;;;;5077654;28;20156;-85
2021/11/10 05:58:32;;;;;;;143.15;130.15;;;2.40;99.90;;;;;;5078334;28;20184;-85
2021/11/10 06:01:00;;;;;;;153.23;139.65;;;2.40;99.90;;;;;;5061413;28;20168;-84
2021/11/10 06:03:27;;;;;;;128.50;116.35;;;2.40;99.90;;;;;;5079756;28;20156;-85
2021/11/10 06:05:53;;;;;;;147.68;134.30;;;2.40;99.90;;;;;;5077080;28;20160;-85
2021/11/10 06:08:19;;;;;;;157.52;144.68;;;2.30;99.90;;;;;;5076634;28;20184;-84
2021/11/10 06:10:46;;;;;;;133.75;120.90;;;2.30;99.90;;;;;;5058925;28;20187;-85
2021/11/10 06:13:12;;;;;;;138.75;125.80;;;2.40;99.90;;;;;;5076960;28;20194;-85
2021/11/10 06:15:38;;;;;;;132.37;119.17;;;2.40;99.90;;;;;;5076565;28;20570;-85
2021/11/10 06:18:06;;;;;;;170.80;156.60;;;2.40;99.90;;;;;;5076699;28;20398;-85
2021/11/10 06:20:34;;;;;;;144.85;132.05;;;2.50;99.90;;;;;;5077105;28;20194;-85
2021/11/10 06:22:59;;;;;;;173.70;159.77;;;2.50;99.90;;;;;;5058698;28;20170;-85
2021/11/10 06:25:25;;;;;;;135.37;122.30;;;2.50;99.90;;;;;;5076395;28;20168;-84
2021/11/10 06:27:51;;;;;;;142.17;129.43;;;2.60;99.90;;;;;;5076777;28;20245;-85
2021/11/10 06:30:16;;;;;;;132.23;120.23;;;2.50;99.90;;;;;;5076410;28;20642;-85
2021/11/10 06:32:45;;;;;;;152.87;139.77;;;2.50;99.90;;;;;;5076500;28;20223;-85
2021/11/10 06:35:15;;;;;;;142.20;129.32;;;2.50;99.90;;;;;;5058880;28;20160;-85
2021/11/10 06:37:41;;;;;;;156.60;143.35;;;2.40;99.90;;;;;;5076644;28;20191;-85
2021/11/10 06:40:08;;;;;;;170.13;156.52;;;2.30;99.90;;;;;;5058577;28;20716;-85
2021/11/10 06:42:33;;;;;;;159.90;146.57;;;2.30;99.90;;;;;;5059157;28;20202;-84
2021/11/10 06:45:00;;;;;;;147.53;134.53;;;2.30;99.90;;;;;;5059129;28;20175;-84
2021/11/10 06:47:29;;;;;;;151.05;137.32;;;2.30;99.90;;;;;;5152894;22;20254;-85
2021/11/10 06:49:55;;;;;;;167.77;154.30;;;2.30;99.90;;;;;;5086048;28;20183;-85
2021/11/10 06:52:29;;;;;;;171.93;157.68;;;2.30;99.90;;;;;;5086376;28;20206;-85
2021/11/10 06:54:55;;;;;;;176.93;162.57;;;2.40;99.90;;;;;;5087226;28;20171;-85
2021/11/10 06:57:22;;;;;;;164.57;150.73;;;2.40;99.90;;;;;;5068443;28;20254;-85
2021/11/10 06:59:47;;;;;;;163.73;150.27;;;2.40;99.90;;;;;;5086977;28;20551;-85
2021/11/10 07:02:13;;;;;;;170.87;157.40;;;2.40;99.90;;;;;;5086486;28;20152;-85
2021/11/10 07:04:39;;;;;;;155.48;142.10;;;2.40;99.90;;;;;;5089202;28;20417;-85
2021/11/10 07:07:05;;;;;;;157.13;144.03;;;2.50;99.90;;;;;;5086711;28;20164;-85
2021/11/10 07:09:32;;;;;;;170.43;156.55;;;2.60;99.90;;;;;;5083409;28;20195;-85
2021/11/10 07:11:58;;;;;;;180.45;166.57;;;2.60;99.90;;;;;;5081369;28;20209;-85
2021/11/10 07:14:26;;;;;;;178.13;164.07;;;2.60;99.90;;;;;;5082850;28;20216;-85
2021/11/10 07:16:52;;;;;;;172.38;158.48;;;2.60;99.90;;;;;;5084513;28;20156;-85
2021/11/10 07:19:17;;;;;;;169.70;155.93;;;2.80;99.90;;;;;;5066521;28;20304;-85
2021/11/10 07:21:43;;;;;;;186.00;171.80;;;2.80;99.90;;;;;;5066784;28;20410;-85
2021/11/10 07:24:09;;;;;;;191.40;177.02;;;2.90;99.90;;;;;;5066199;28;20167;-85
2021/11/10 07:26:35;;;;;;;195.40;180.93;;;2.90;99.90;;;;;;5086455;28;20508;-84
2021/11/10 07:29:01;;;;;;;177.73;163.67;;;2.90;99.90;;;;;;5082886;28;20674;-84
2021/11/10 07:31:27;;;;;;;185.02;170.57;;;3.00;99.90;;;;;;5082121;28;20198;-84
2021/11/10 07:33:52;;;;;;;185.53;171.70;;;3.00;99.90;;;;;;5086699;28;20160;-85
2021/11/10 07:36:19;;;;;;;205.70;190.53;;;3.00;99.90;;;;;;5068351;28;20203;-85
2021/11/10 07:38:45;;;;;;;193.18;178.43;;;3.00;99.90;;;;;;5085702;28;20217;-85
2021/11/10 07:41:13;;;;;;;195.07;180.07;;;3.10;99.90;;;;;;5081818;28;20635;-85
2021/11/10 07:44:07;;;;;;;181.18;167.00;;;3.20;99.90;;;;;;5081795;28;20886;-85
2021/11/10 07:46:33;;;;;;;177.70;163.68;;;3.30;99.90;;;;;;5079633;28;20175;-84
2021/11/10 07:48:59;;;;;;;200.03;184.27;;;3.40;99.90;;;;;;5061198;28;20226;-85
2021/11/10 07:51:33;;;;;;;188.63;173.93;;;3.40;99.90;;;;;;5080855;28;20430;-85
2021/11/10 07:54:00;;;;;;;194.70;180.07;;;3.50;99.90;;;;;;5061974;28;20156;-85
2021/11/10 07:56:26;;;;;;;174.88;160.55;;;3.50;99.90;;;;;;5080022;28;20141;-85
2021/11/10 07:58:52;;;;;;;219.38;203.80;;;3.50;99.90;;;;;;5080938;28;20203;-85
2021/11/10 08:01:18;;;;;;;210.80;194.73;;;3.40;99.90;;;;;;5079719;28;20175;-85
2021/11/10 08:03:48;;;;;;;182.60;167.90;;;3.50;99.90;;;;;;5079982;28;20163;-85
2021/11/10 08:06:14;;;;;;;195.65;180.23;;;3.60;99.90;;;;;;5080365;28;20394;-85
2021/11/10 08:08:39;;;;;;;179.70;165.80;;;3.60;99.90;;;;;;5062058;28;20195;-85
2021/11/10 08:11:05;;;;;;;201.17;186.17;;;3.60;99.90;;;;;;5079406;28;20242;-85
2021/11/10 08:13:34;;;;;;;177.60;163.67;;;3.60;99.90;;;;;;5061494;28;20190;-85
2021/11/10 08:16:00;;;;;;;187.65;172.80;;;3.50;99.90;;;;;;5061529;28;20179;-85
2021/11/10 08:18:27;;;;;;;213.13;197.60;;;3.50;99.90;;;;;;5061655;28;20241;-85
2021/11/10 08:20:56;;;;;;;181.73;167.63;;;3.60;99.90;;;;;;5079156;28;20160;-85
2021/11/10 08:23:25;;;;;;;199.07;184.07;;;3.70;99.90;;;;;;5079282;28;20163;-85
2021/11/10 08:25:52;;;;;;;220.35;204.60;;;3.70;99.90;;;;;;5083429;28;20175;-85
2021/11/10 08:28:19;;;;;;;175.80;161.48;;;3.70;99.90;;;;;;5083966;28;20183;-85
2021/11/10 08:30:45;;;;;;;197.23;182.25;;;3.70;99.90;;;;;;5083173;28;20171;-85
2021/11/10 08:33:10;;;;;;;192.10;177.25;;;3.70;99.90;;;;;;5064037;28;20569;-85
2021/11/10 08:35:36;;;;;;;216.33;200.97;;;3.80;99.90;;;;;;5065605;28;20160;-85
2021/11/10 08:38:02;;;;;;;226.00;210.07;;;3.90;99.90;;;;;;5087945;28;20156;-85
2021/11/10 08:40:28;;;;;;;222.50;206.27;;;4.00;99.90;;;;;;5065709;28;20546;-85
2021/11/10 08:42:54;;;;;;;189.33;174.87;;;4.10;99.90;;;;;;5084569;28;20187;-85
2021/11/10 08:45:28;;;;;;;202.73;187.47;;;4.10;99.90;;;;;;5066493;28;20417;-85
2021/11/10 08:47:58;;;;;;;212.27;197.10;;;4.20;99.90;;;;;;5084592;28;20270;-86
2021/11/10 08:50:26;;;;;;;187.45;172.90;;;4.30;99.90;;;;;;5084176;28;20151;-85
2021/11/10 08:52:53;;;;;;;219.25;202.85;;;4.50;99.90;;;;;;5084168;28;20251;-85
2021/11/10 08:55:19;;;;;;;173.18;159.15;;;4.50;99.90;;;;;;5086136;28;20167;-86
2021/11/10 08:57:46;;;;;;;196.73;181.57;;;4.60;99.90;;;;;;5068173;28;20167;-86
2021/11/10 09:00:16;;;;;;;184.10;169.55;;;4.70;99.90;;;;;;5085628;28;20206;-85
2021/11/10 09:02:41;;;;;;;193.18;177.68;;;4.70;99.90;;;;;;5088282;28;20148;-85
2021/11/10 09:05:08;;;;;;;223.87;207.40;;;4.80;99.90;;;;;;5085280;28;20309;-85
2021/11/10 09:07:34;;;;;;;195.98;181.30;;;4.80;99.90;;;;;;5070002;28;20577;-84
2021/11/10 09:10:00;;;;;;;210.05;194.90;;;4.80;99.90;;;;;;5084997;28;20569;-84
2021/11/10 09:12:27;;;;;;;202.00;186.35;;;4.90;99.90;;;;;;5082641;28;20218;-84
2021/11/10 09:14:52;;;;;;;218.68;203.02;;;5.00;99.90;;;;;;5083234;28;20160;-84
2021/11/10 09:17:19;;;;;;;179.33;164.43;;;5.10;99.90;;;;;;5082938;28;20209;-84
2021/11/10 09:19:45;;;;;;;207.85;192.85;;;5.20;99.90;;;;;;5065115;28;20233;-85
2021/11/10 09:22:10;;;;;;;201.27;186.23;;;5.40;99.90;;;;;;5082129;28;20167;-84
2021/11/10 09:24:37;;;;;;;160.17;145.97;;;5.60;99.90;;;;;;5083936;28;20160;-84
2021/11/10 09:27:03;;;;;;;164.65;150.68;;;5.70;99.90;;;;;;5062506;28;20171;-84
2021/11/10 09:29:30;;;;;;;155.47;141.70;;;5.90;99.90;;;;;;5062837;28;20187;-85
2021/11/10 09:31:56;;;;;;;155.50;141.60;;;6.00;99.90;;;;;;5080972;28;20437;-85
2021/11/10 09:34:22;;;;;;;157.60;143.27;;;6.20;99.90;;;;;;5080516;28;20229;-85
2021/11/10 09:36:47;;;;;;;150.67;137.27;;;6.20;99.90;;;;;;5080194;28;20152;-85
2021/11/10 09:39:24;;;;;;;139.57;127.10;;;6.30;99.90;;;;;;5080699;28;20226;-85
2021/11/10 09:41:52;;;;;;;135.35;122.40;;;6.30;99.90;;;;;;5080328;28;20150;-85
2021/11/10 09:44:19;;;;;;;149.48;136.15;;;6.40;99.90;;;;;;5080104;28;20160;-85
2021/11/10 09:46:45;;;;;;;153.40;139.50;;;6.40;99.90;;;;;;5080709;28;20222;-85
2021/11/10 09:49:12;;;;;;;169.68;155.55;;;6.30;99.90;;;;;;5080696;28;20187;-85
2021/11/10 09:51:42;;;;;;;163.23;149.65;;;6.30;99.90;;;;;;5062294;28;20601;-85
2021/11/10 09:54:09;;;;;;;164.90;150.93;;;6.20;99.90;;;;;;5063624;28;20158;-85
2021/11/10 09:56:35;;;;;;;164.73;150.93;;;6.30;99.90;;;;;;5080882;28;20160;-85
2021/11/10 09:59:03;;;;;;;121.18;108.22;;;6.30;99.90;;;;;;5079860;28;20686;-85
2021/11/10 10:01:31;;;;;;;163.68;149.35;;;6.30;99.90;;;;;;5062635;28;20164;-85
2021/11/10 10:03:57;;;;;;;129.90;117.45;;;6.20;99.90;;;;;;5081513;28;20164;-85
2021/11/10 10:06:26;;;;;;;139.65;126.45;;;6.20;99.90;;;;;;5082087;28;20172;-85
2021/11/10 10:08:52;;;;;;;141.65;127.82;;;6.20;99.90;;;;;;5063573;28;20202;-85
2021/11/10 10:11:19;;;;;;;140.32;127.07;;;6.20;99.90;;;;;;5081507;28;20562;-85
2021/11/10 10:13:45;;;;;;;157.48;143.13;;;6.20;99.90;;;;;;5062924;28;20250;-85
2021/11/10 10:16:11;;;;;;;159.73;145.52;;;6.10;99.90;;;;;;5080817;28;20160;-85
2021/11/10 10:18:38;;;;;;;192.20;177.07;;;6.10;99.90;;;;;;5080129;28;20270;-85
2021/11/10 10:21:06;;;;;;;172.98;158.65;;;6.10;99.90;;;;;;5080249;28;20447;-85
2021/11/10 10:23:36;;;;;;;192.23;175.20;;;6.20;99.90;;;;;;5062279;28;20160;-85
2021/11/10 10:26:28;;;;;;;162.50;148.65;;;6.20;99.90;;;;;;5079971;28;20164;-85
2021/11/10 10:29:03;;;;;;;170.80;155.85;;;6.20;99.90;;;;;;5078048;28;20195;-85
2021/11/10 10:31:29;;;;;;;151.80;137.70;;;6.30;99.90;;;;;;5061891;28;20189;-85
2021/11/10 10:34:07;;;;;;;168.77;154.80;;;6.40;99.90;;;;;;5082970;28;20195;-86
2021/11/10 10:36:40;;;;;;;168.27;154.32;;;6.40;99.90;;;;;;5084117;28;20390;-85
2021/11/10 10:39:25;;;;;;;181.27;166.75;;;6.50;99.90;;;;;;5079403;28;20176;-85
2021/11/10 10:41:52;;;;;;;184.27;169.63;;;6.60;99.90;;;;;;5080048;28;20167;-85
2021/11/10 10:44:21;;;;;;;167.40;151.93;;;6.70;99.90;;;;;;5061353;28;20202;-85
2021/11/10 10:47:01;;;;;;;166.93;152.70;;;6.60;99.90;;;;;;5062286;28;20194;-85
2021/11/10 10:49:33;;;;;;;169.35;155.25;;;6.60;99.90;;;;;;5079802;28;20198;-85
2021/11/10 10:52:14;;;;;;;164.30;150.43;;;6.60;99.90;;;;;;5080088;28;20175;-85
2021/11/10 10:54:41;;;;;;;183.57;168.50;;;6.70;99.90;;;;;;5079289;28;20194;-85
2021/11/10 10:57:10;;;;;;;189.50;174.00;;;6.70;99.90;;;;;;5079325;28;20164;-85
2021/11/10 10:59:36;;;;;;;172.75;157.55;;;6.80;99.90;;;;;;5079055;28;20176;-85
2021/11/10 11:02:04;;;;;;;169.05;154.77;;;6.90;99.90;;;;;;5079430;28;20233;-85
2021/11/10 11:04:32;;;;;;;202.77;186.73;;;6.80;99.90;;;;;;5078673;28;20259;-85
2021/11/10 11:06:58;;;;;;;181.75;167.10;;;6.80;99.90;;;;;;5079233;28;20248;-85
2021/11/10 11:10:03;;;;;;;190.07;174.97;;;6.80;99.90;;;;;;5079641;28;20212;-85
2021/11/10 11:12:31;;;;;;;178.35;163.35;;;7.00;99.90;;;;;;4980617;28;20249;-85
2021/11/10 11:15:03;;;;;;;187.85;173.25;;;6.90;99.90;;;;;;5062687;28;20168;-85
2021/11/10 11:17:30;;;;;;;180.98;166.02;;;7.00;99.90;;;;;;5081030;28;20159;-85
2021/11/10 11:19:59;;;;;;;169.43;153.43;;;7.10;99.90;;;;;;5063300;28;20211;-85
2021/11/10 11:22:33;;;;;;;150.80;136.35;;;7.30;99.90;;;;;;5079465;28;20168;-85
2021/11/10 11:25:11;;;;;;;128.93;115.75;;;7.50;99.90;;;;;;5061353;28;20159;-86
2021/11/10 11:27:38;;;;;;;105.25;82.80;;;7.50;99.90;;;;;;5080744;28;20231;-86
2021/11/10 11:30:14;;;;;;;104.20;66.78;;;7.60;99.90;;;;;;5079190;28;20543;-85
2021/11/10 11:32:44;;;;;;;102.65;77.65;;;7.80;99.90;;;;;;5078656;28;20195;-86
2021/11/10 11:35:25;;;;;;;126.82;114.22;;;8.00;99.90;;;;;;5078836;28;20517;-85
2021/11/10 11:37:52;;;;;;;115.28;102.22;;;8.20;99.90;;;;;;5078250;28;20168;-87
2021/11/10 11:40:19;;;;;;;112.50;96.30;;;8.00;99.90;;;;;;5078764;28;20191;-86
2021/11/10 11:42:49;;;;;;;113.88;76.85;;;8.20;99.90;;;;;;5079324;28;20647;-85
2021/11/10 11:45:17;;;;;;;89.25;29.45;;;8.50;99.90;;;;;;5079210;28;20168;-86
2021/11/10 11:47:48;;;;;;;86.18;29.05;;;8.60;99.90;;;;;;5061683;28;20192;-86
2021/11/10 11:50:16;;;;;;;92.43;31.88;;;8.60;99.90;;;;;;5078626;28;20148;-86
2021/11/10 11:52:44;;;;;;;94.05;46.22;;;8.70;99.90;;;;;;5078168;28;20761;-85
2021/11/10 11:55:13;;;;;;;96.30;52.15;;;8.90;99.90;;;;;;5060959;28;20168;-85
2021/11/10 11:57:44;;;;;;;96.78;54.58;;;8.90;99.90;;;;;;5062607;28;20305;-85
2021/11/10 12:00:33;;;;;;;93.53;49.03;;;8.90;99.90;;;;;;5079354;28;20262;-86
2021/11/10 12:02:59;;;;;;;94.88;48.17;;;8.90;99.90;;;;;;5028037;28;20179;-85
2021/11/10 12:05:29;;;;;;;98.80;50.87;;;8.80;99.90;;;;;;5078864;28;20220;-86
2021/11/10 12:07:57;;;;;;;97.80;43.45;;;8.80;99.90;;;;;;5061249;28;20159;-86
2021/11/10 12:10:24;;;;;;;91.13;39.83;;;8.90;99.90;;;;;;5078356;28;20160;-85
2021/11/10 12:13:13;;;;;;;88.57;35.00;;;8.90;99.90;;;;;;5079708;28;20184;-86
2021/11/10 12:16:01;;;;;;;91.25;35.88;;;8.90;99.90;;;;;;5080048;28;20182;-86
2021/11/10 12:18:50;;;;;;;97.05;39.80;;;9.00;99.90;;;;;;5064414;28;20659;-86
2021/11/10 12:21:21;;;;;;;96.43;36.50;;;9.00;99.90;;;;;;5079660;28;20148;-85
2021/11/10 12:23:55;;;;;;;87.20;33.92;;;9.10;99.90;;;;;;5078905;28;20180;-85